createdAt,value
2022-10-07T00:06:20.782Z,70.53
2022-10-07T00:35:18.432Z,72.78
2022-10-07T01:04:14.998Z,74.45
2022-10-07T01:33:06.683Z,76.16
2022-10-07T02:02:00.289Z,78.1
2022-10-07T02:30:56.616Z,79.52
2022-10-07T02:59:44.757Z,78.76
2022-10-07T03:28:29.664Z,77.49
2022-10-07T03:57:17.843Z,79.65
2022-10-07T04:26:08.233Z,79.62
2022-10-07T04:55:04.456Z,79.98
2022-10-07T05:23:59.751Z,80.57
2022-10-07T05:52:49.583Z,80.63
2022-10-07T06:21:42.269Z,79.95
2022-10-07T06:50:19.482Z,77.28
2022-10-07T07:19:01.442Z,75.74
2022-10-07T07:47:31.990Z,68.13
2022-10-07T08:16:32.712Z,65.95
2022-10-07T08:45:24.834Z,67.06
2022-10-07T09:13:57.008Z,66.98
2022-10-07T10:11:36.076Z,65.13
2022-10-07T10:40:31.032Z,64.4
2022-10-07T11:09:20.718Z,63.54
2022-10-07T12:06:35.066Z,61.46
2022-10-07T12:35:05.232Z,60.41
2022-10-07T13:03:33.808Z,59.27
2022-10-07T13:32:26.286Z,58.93
2022-10-07T14:01:04.423Z,57.65
2022-10-07T14:29:43.762Z,55.83
2022-10-07T14:58:23.444Z,58
2022-10-07T15:26:53.186Z,59.81
2022-10-07T15:55:24.644Z,59.03
2022-10-07T16:23:42.696Z,63.41
2022-10-07T16:52:01.236Z,70.62
2022-10-07T17:20:38.073Z,75.3
2022-10-07T17:49:08.957Z,77.43
2022-10-07T18:18:00.414Z,78.61
2022-10-07T18:46:41.390Z,81.13
2022-10-07T19:15:12.065Z,80.64
2022-10-07T19:43:46.060Z,83.23
2022-10-07T20:12:25.762Z,84.24
2022-10-07T20:41:08.853Z,84.8
2022-10-07T21:09:38.787Z,86.22
2022-10-07T21:38:31.913Z,85.99
2022-10-07T22:07:43.051Z,88.21
2022-10-07T22:36:22.876Z,87.74
2022-10-07T23:05:02.015Z,90.7
2022-10-07T23:33:53.750Z,88.56
